Time;durP1;ratioP1;P1;durP2;ratioP2;P2;SDS_P1;SDS_P2;PMS_P1;PMS_P2;Temp;Humidity;BMP_temperature;BMP_pressure;BME280_temperature;BME280_humidity;BME280_pressure;Samples;Min_cycle;Max_cycle;Signal;HPM_P1;HPM_P2
2022/08/01 00:02:20;;;;;;;9.02;8.23;;;;;;;21.25;100.00;-18325.84;5071408;28;20184;-63
2022/08/01 00:04:47;;;;;;;10.18;8.98;;;;;;;21.50;100.00;-18331.78;5071205;28;20191;-63
2022/08/01 00:07:13;;;;;;;11.88;9.32;;;;;;;21.41;100.00;-18329.75;5071555;28;20188;-63
2022/08/01 00:09:40;;;;;;;12.43;9.23;;;;;;;21.34;100.00;-18328.09;5071511;28;20181;-63
2022/08/01 00:12:07;;;;;;;12.23;9.18;;;;;;;21.30;100.00;-18327.03;5071365;28;20579;-62
2022/08/01 00:14:36;;;;;;;11.52;9.55;;;;;;;21.32;100.00;-18327.63;5071051;28;20192;-63
2022/08/01 00:17:03;;;;;;;11.40;10.40;;;;;;;21.30;100.00;-18327.13;5071146;28;20185;-63
2022/08/01 00:19:30;;;;;;;10.68;9.63;;;;;;;21.35;100.00;-18328.31;5071093;28;20181;-63
2022/08/01 00:21:57;;;;;;;19.27;9.80;;;;;;;21.33;100.00;-18327.72;5071054;28;20185;-63
2022/08/01 00:24:25;;;;;;;9.82;9.00;;;;;;;21.32;100.00;-18327.63;5071513;28;20187;-62
2022/08/01 00:26:52;;;;;;;13.20;9.18;;;;;;;21.28;100.00;-18326.66;5071269;28;20189;-63
2022/08/01 00:29:19;;;;;;;12.13;10.07;;;;;;;21.31;100.00;-18327.25;5072232;28;20639;-63
2022/08/01 00:31:47;;;;;;;12.65;10.93;;;;;;;21.34;100.00;-18327.97;5074903;28;20197;-63
2022/08/01 00:34:14;;;;;;;11.15;10.13;;;;;;;21.36;100.00;-18328.44;5075152;28;20189;-62
2022/08/01 00:36:41;;;;;;;15.10;10.38;;;;;;;21.31;100.00;-18327.38;5073482;28;20209;-63
2022/08/01 00:39:08;;;;;;;11.35;10.10;;;;;;;21.21;100.00;-18325.00;5074684;28;20191;-63
2022/08/01 00:41:35;;;;;;;10.65;9.85;;;;;;;21.37;100.00;-18328.81;5074694;28;20181;-63
2022/08/01 00:44:04;;;;;;;13.57;10.00;;;;;;;21.38;100.00;-18328.94;5074870;28;20204;-63
2022/08/01 00:46:31;;;;;;;12.00;10.35;;;;;;;21.37;100.00;-18328.69;5074615;28;20181;-63
2022/08/01 00:49:00;;;;;;;9.82;9.07;;;;;;;21.38;100.00;-18328.94;5074473;28;20185;-63
2022/08/01 00:51:28;;;;;;;15.32;9.27;;;;;;;21.34;100.00;-18327.97;5074402;28;20188;-63
2022/08/01 00:53:55;;;;;;;11.40;10.00;;;;;;;21.25;100.00;-18325.84;5074666;28;20181;-63
2022/08/01 00:56:26;;;;;;;10.52;9.35;;;;;;;21.05;100.00;-18321.19;5074375;28;20244;-63
2022/08/01 00:58:53;;;;;;;15.15;9.73;;;;;;;21.03;100.00;-18320.59;5074440;28;20189;-63
2022/08/01 01:01:21;;;;;;;10.95;9.05;;;;;;;21.00;100.00;-18320.00;5074650;28;20200;-63
2022/08/01 01:03:48;;;;;;;14.20;9.37;;;;;;;20.96;100.00;-18319.16;5074445;28;20629;-63
2022/08/01 01:06:39;;;;;;;16.27;11.98;;;;;;;20.86;100.00;-18316.66;5074630;28;20624;-62
2022/08/01 01:09:22;;;;;;;14.15;11.38;;;;;;;21.06;100.00;-18321.41;5074145;28;20191;-63
2022/08/01 01:12:02;;;;;;;12.70;11.77;;;;;;;21.11;100.00;-18322.63;5074071;28;20188;-63
2022/08/01 01:14:34;;;;;;;12.45;11.10;;;;;;;21.09;100.00;-18322.03;5073931;28;20228;-63
2022/08/01 01:17:05;;;;;;;15.23;12.60;;;;;;;21.10;100.00;-18322.25;5074101;28;20215;-63
2022/08/01 01:19:38;;;;;;;21.48;15.77;;;;;;;21.10;100.00;-18322.38;5074841;28;20181;-63
2022/08/01 01:22:37;;;;;;;18.77;16.80;;;;;;;20.94;100.00;-18318.69;5073979;28;20193;-63
2022/08/01 01:25:19;;;;;;;20.33;17.53;;;;;;;20.91;100.00;-18317.84;5073997;28;20189;-63
2022/08/01 01:28:00;;;;;;;23.15;17.08;;;;;;;20.96;100.00;-18319.16;5073815;28;20556;-63
2022/08/01 01:30:32;;;;;;;19.70;17.25;;;;;;;20.94;100.00;-18318.56;5074152;28;20647;-64
2022/08/01 01:33:02;;;;;;;18.25;16.13;;;;;;;20.91;100.00;-18317.84;5074087;28;20563;-63
2022/08/01 01:35:33;;;;;;;19.77;15.13;;;;;;;20.91;100.00;-18317.84;5073849;28;20658;-63
2022/08/01 01:38:06;;;;;;;17.42;15.85;;;;;;;20.95;100.00;-18318.81;5073996;28;20634;-63
2022/08/01 01:40:34;;;;;;;15.95;14.65;;;;;;;20.95;100.00;-18318.81;5072624;28;20593;-63
2022/08/01 01:43:01;;;;;;;19.10;15.38;;;;;;;20.72;100.00;-18313.31;5073786;28;20200;-64
2022/08/01 01:45:31;;;;;;;14.83;13.33;;;;;;;20.80;100.00;-18315.22;5073981;28;20206;-63
2022/08/01 01:47:59;;;;;;;13.90;12.23;;;;;;;20.82;100.00;-18315.72;5073461;28;20185;-63
2022/08/01 01:50:28;;;;;;;13.27;12.15;;;;;;;20.77;100.00;-18314.50;5073753;28;20184;-62
2022/08/01 01:52:57;;;;;;;13.53;12.43;;;;;;;20.69;100.00;-18312.59;5073833;28;20547;-64
2022/08/01 01:55:26;;;;;;;12.93;11.83;;;;;;;20.64;100.00;-18311.41;5073311;28;20208;-64
2022/08/01 01:57:57;;;;;;;14.68;11.25;;;;;;;20.68;100.00;-18312.38;5073307;28;20189;-64
2022/08/01 02:00:25;;;;;;;10.95;10.35;;;;;;;20.66;100.00;-18311.91;5073250;28;20184;-63
2022/08/01 02:02:57;;;;;;;10.00;9.45;;;;;;;20.61;100.00;-18310.81;5073520;28;20656;-64
2022/08/01 02:05:26;;;;;;;9.80;8.98;;;;;;;20.47;100.00;-18307.59;5073415;28;20181;-64
2022/08/01 02:07:55;;;;;;;9.07;8.23;;;;;;;20.50;100.00;-17337.78;5073225;28;20505;-64
2022/08/01 02:10:23;;;;;;;10.33;9.37;;;;;;;20.51;100.00;-17660.81;5073262;28;20256;-64
2022/08/01 02:12:51;;;;;;;8.55;8.02;;;;;;;20.40;100.00;-18305.94;5073001;28;20595;-63
2022/08/01 02:15:19;;;;;;;9.23;8.43;;;;;;;20.51;100.00;-17983.69;5072920;28;20199;-64
2022/08/01 02:17:49;;;;;;;8.30;7.68;;;;;;;20.49;100.00;-18307.97;5073002;28;20191;-63
2022/08/01 02:20:18;;;;;;;7.10;6.70;;;;;;;20.41;100.00;-18306.16;5072248;28;20189;-63
2022/08/01 02:22:49;;;;;;;7.25;6.95;;;;;;;20.46;100.00;-18307.25;5072748;28;20196;-63
2022/08/01 02:25:21;;;;;;;6.20;5.90;;;;;;;20.38;100.00;-18305.47;5072827;28;20189;-63
2022/08/01 02:27:55;;;;;;;7.03;5.97;;;;;;;20.32;100.00;-15719.13;5072679;28;20276;-64
2022/08/01 02:30:25;;;;;;;6.47;5.97;;;;;;;20.27;100.00;-18300.94;5073102;28;20650;-63
2022/08/01 02:33:00;;;;;;;6.15;5.68;;;;;;;20.22;100.00;-16040.19;5072866;28;20652;-63
2022/08/01 02:35:31;;;;;;;6.72;6.43;;;;;;;20.22;100.00;-17654.31;5071835;28;20188;-63
2022/08/01 02:38:01;;;;;;;5.67;5.17;;;;;;;20.22;100.00;-16040.19;5071182;28;20185;-63
2022/08/01 02:40:30;;;;;;;6.90;5.70;;;;;;;20.22;100.00;-15071.22;5072866;28;20199;-63
2022/08/01 02:43:00;;;;;;;5.90;5.33;;;;;;;20.10;100.00;-18298.78;5072539;28;20200;-64
2022/08/01 02:45:28;;;;;;;5.60;5.33;;;;;;;19.72;100.00;-18289.84;5072698;28;20650;-63
2022/08/01 02:48:00;;;;;;;5.73;5.33;;;;;;;19.88;100.00;-18291.63;5072758;28;20652;-63
2022/08/01 02:50:30;;;;;;;4.93;4.60;;;;;;;19.79;100.00;-10541.19;5072633;28;20520;-63
2022/08/01 02:52:58;;;;;;;4.80;4.50;;;;;;;19.73;100.00;-9570.81;5071800;28;20185;-63
2022/08/01 02:55:27;;;;;;;5.20;4.60;;;;;;;19.71;100.00;-8600.63;5072257;28;20204;-63
2022/08/01 02:57:56;;;;;;;4.50;4.20;;;;;;;19.59;100.00;-12154.22;5072166;28;20191;-63
2022/08/01 03:00:25;;;;;;;4.70;4.40;;;;;;;19.64;100.00;-10862.63;5072511;28;20386;-64
2022/08/01 03:02:55;;;;;;;3.92;3.70;;;;;;;19.63;100.00;-5364.91;5072293;28;20695;-64
2022/08/01 03:05:23;;;;;;;3.83;3.50;;;;;;;19.67;100.00;-3422.38;5072531;28;20188;-63
2022/08/01 03:07:54;;;;;;;4.80;4.47;;;;;;;19.71;100.00;-9247.28;5072039;28;20196;-64
2022/08/01 03:10:21;;;;;;;4.80;4.50;;;;;;;19.70;100.00;-10216.97;5072264;28;20559;-63
2022/08/01 03:12:51;;;;;;;4.53;4.10;;;;;;;19.63;100.00;-8276.56;5071815;28;20239;-63
2022/08/01 03:15:19;;;;;;;4.90;4.50;;;;;;;19.58;100.00;-7952.88;5072193;28;20636;-64
2022/08/01 03:17:49;;;;;;;4.23;3.97;;;;;;;19.51;100.00;141.31;5071921;28;20205;-63
2022/08/01 03:20:19;;;;;;;4.27;3.97;;;;;;;19.49;100.00;-1803.06;5071798;28;20187;-63
2022/08/01 03:22:49;;;;;;;4.67;4.27;;;;;;;19.14;100.00;2083.47;5071712;28;20196;-64
2022/08/01 03:25:18;;;;;;;4.53;4.33;;;;;;;19.30;100.00;-7304.28;5071664;28;20191;-63
2022/08/01 03:27:50;;;;;;;4.47;3.43;;;;;;;19.43;100.00;-5364.31;5071738;28;20275;-63
2022/08/01 03:30:17;;;;;;;7.90;3.80;;;;;;;19.59;100.00;-1154.75;5072041;28;20532;-63
2022/08/01 03:32:44;;;;;;;3.40;3.30;;;;;;;20.02;100.00;12820.72;5071686;28;20191;-63
2022/08/01 03:35:11;;;;;;;3.53;3.23;;;;;;;20.77;100.00;39684.78;5071906;28;20185;-63
2022/08/01 03:37:43;;;;;;;2.80;2.70;;;;;;;21.18;100.00;77085.50;5071496;28;20258;-63
2022/08/01 03:40:14;;;;;;;4.77;3.47;;;;;;;21.29;100.00;86425.66;5071753;28;20185;-64
2022/08/01 03:42:48;;;;;;;3.63;2.90;;;;;;;21.71;100.00;115307.50;5071725;28;20562;-63
2022/08/01 03:45:21;;;;;;;4.35;2.90;;;;;;;21.75;100.00;149665.34;5071423;28;20189;-63
2022/08/01 03:47:53;;;;;;;4.00;2.58;;;;;;;21.83;100.00;151172.69;5071417;28;20184;-63
2022/08/01 03:50:23;;;;;;;3.45;2.55;;;;;;;22.48;100.00;151689.25;5071635;28;20196;-63
2022/08/01 03:52:52;;;;;;;2.88;2.67;;;;;;;22.80;100.00;151769.63;5071408;28;20189;-64
2022/08/01 03:55:21;;;;;;;3.95;2.80;;;;;;;23.01;100.00;151824.47;5071628;28;20230;-63
2022/08/01 03:57:51;;;;;;;2.60;2.50;;;;;;;23.00;100.00;151820.69;5071253;28;20215;-63
2022/08/01 04:00:19;;;;;;;2.58;2.38;;;;;;;23.13;100.00;151855.09;5071626;28;20185;-63
2022/08/01 04:02:47;;;;;;;3.92;2.60;;;;;;;23.21;100.00;151875.50;5071637;28;20180;-63
2022/08/01 04:05:14;;;;;;;2.20;2.10;;;;;;;23.27;100.00;151888.28;5074196;28;20188;-64
2022/08/01 04:07:46;;;;;;;3.65;2.40;;;;;;;23.36;100.00;151911.25;5075451;28;20181;-64
2022/08/01 04:10:13;;;;;;;2.92;2.10;;;;;;;23.37;100.00;151913.81;5075353;28;20227;-63
2022/08/01 04:12:40;;;;;;;2.13;1.95;;;;;;;23.54;100.00;151957.25;5075406;28;20714;-63
2022/08/01 04:15:09;;;;;;;2.45;2.35;;;;;;;23.71;100.00;152000.66;5075669;28;20210;-64
2022/08/01 04:17:36;;;;;;;3.65;1.73;;;;;;;23.86;100.00;152038.91;5075137;28;20201;-64
2022/08/01 04:20:03;;;;;;;2.60;2.42;;;;;;;23.89;100.00;152046.56;5073848;28;20201;-63
2022/08/01 04:22:31;;;;;;;3.55;2.00;;;;;;;24.14;100.00;152110.38;5075120;28;20284;-63
2022/08/01 04:24:59;;;;;;;4.57;1.80;;;;;;;24.37;100.00;152166.63;5075140;28;20238;-63
2022/08/01 04:27:31;;;;;;;2.85;2.45;;;;;;;24.56;100.00;152216.47;5075071;28;20181;-62
2022/08/01 04:30:00;;;;;;;5.88;2.40;;;;;;;24.63;100.00;152233.03;5074985;28;20286;-63
2022/08/01 04:32:31;;;;;;;3.53;3.05;;;;;;;24.65;100.00;152238.16;5075360;28;20563;-63
2022/08/01 04:35:00;;;;;;;3.97;1.52;;;;;;;24.82;100.00;152281.59;5074907;28;20238;-63
2022/08/01 04:37:30;;;;;;;1.85;1.75;;;;;;;25.02;100.00;152331.44;5074913;28;20215;-63
2022/08/01 04:39:59;;;;;;;2.75;1.83;;;;;;;25.11;100.00;152353.16;5074874;28;20235;-64
2022/08/01 04:42:27;;;;;;;1.77;1.63;;;;;;;25.33;100.00;152409.41;5075082;28;20552;-62
2022/08/01 04:44:54;;;;;;;3.67;2.00;;;;;;;25.52;100.00;152457.94;5075157;28;20200;-62
2022/08/01 04:47:21;;;;;;;3.55;1.45;;;;;;;25.62;100.00;152482.28;5075249;28;20191;-62
2022/08/01 04:49:50;;;;;;;3.67;1.63;;;;;;;25.53;100.00;152459.22;5075263;28;20220;-60
2022/08/01 04:52:18;;;;;;;2.00;1.70;;;;;;;25.95;100.00;152565.31;5074617;28;20185;-61
2022/08/01 04:54:46;;;;;;;3.05;2.08;;;;;;;26.12;100.00;152610.09;5075152;28;20185;-61
2022/08/01 04:57:13;;;;;;;9.52;2.30;;;;;;;26.40;100.00;152680.41;5074649;28;20255;-62
2022/08/01 04:59:43;;;;;;;1.70;1.60;;;;;;;26.44;100.00;152690.66;5074520;28;20188;-64
2022/08/01 05:02:13;;;;;;;1.60;1.60;;;;;;;26.62;100.00;152735.41;5074522;28;20224;-64
2022/08/01 05:04:41;;;;;;;3.97;1.92;;;;;;;26.85;100.00;152794.31;5074402;28;20190;-63
2022/08/01 05:07:10;;;;;;;6.07;1.95;;;;;;;26.75;100.00;152768.66;5074637;28;20627;-63
2022/08/01 05:09:37;;;;;;;1.92;1.83;;;;;;;26.81;100.00;152785.31;5074371;28;20185;-63
2022/08/01 05:12:06;;;;;;;2.70;1.73;;;;;;;26.99;100.00;152830.09;5074184;28;20191;-63
2022/08/01 05:14:34;;;;;;;1.77;1.67;;;;;;;27.20;100.00;152883.81;5090501;28;20199;-62
2022/08/01 05:17:02;;;;;;;3.72;1.70;;;;;;;27.33;100.00;152915.78;5094531;28;20228;-63
2022/08/01 05:19:31;;;;;;;5.03;1.75;;;;;;;27.09;100.00;152854.41;5094677;28;20192;-63
2022/08/01 05:21:58;;;;;;;3.72;2.10;;;;;;;27.01;100.00;152835.22;5094721;28;20234;-61
2022/08/01 05:24:28;;;;;;;2.28;2.15;;;;;;;27.06;100.00;152846.75;5094917;28;20188;-62
2022/08/01 05:26:55;;;;;;;4.40;2.05;;;;;;;26.96;100.00;152822.44;5094633;28;20180;-63
2022/08/01 05:29:22;;;;;;;6.10;2.10;;;;;;;27.24;100.00;152894.03;5094359;28;20194;-63
2022/08/01 05:31:48;;;;;;;4.35;2.30;;;;;;;27.37;100.00;152924.78;5094478;28;20199;-63
2022/08/01 05:34:17;;;;;;;8.65;2.42;;;;;;;27.45;100.00;152945.25;5094561;28;20207;-63
2022/08/01 05:36:44;;;;;;;5.40;2.38;;;;;;;27.52;100.00;152963.22;5094577;28;20208;-62
2022/08/01 05:39:12;;;;;;;3.80;1.98;;;;;;;27.49;100.00;152956.81;5094735;28;20611;-64
2022/08/01 05:41:41;;;;;;;3.63;1.80;;;;;;;27.65;100.00;152997.75;5094624;28;20224;-62
2022/08/01 05:44:08;;;;;;;2.88;1.80;;;;;;;27.80;100.00;153033.56;5094655;28;20199;-63
2022/08/01 05:46:35;;;;;;;3.22;1.88;;;;;;;27.63;100.00;152991.34;5094386;28;20180;-63
2022/08/01 05:49:04;;;;;;;2.78;2.00;;;;;;;27.48;100.00;152952.97;5093768;28;20194;-62
2022/08/01 05:51:31;;;;;;;1.85;1.75;;;;;;;27.38;100.00;152927.31;5094309;28;20623;-62
2022/08/01 05:53:58;;;;;;;1.85;1.75;;;;;;;27.39;100.00;152929.88;5093958;28;20223;-63
2022/08/01 05:56:25;;;;;;;6.22;2.53;;;;;;;27.45;100.00;152946.53;5093688;28;20184;-63
2022/08/01 05:58:54;;;;;;;1.88;1.77;;;;;;;27.49;100.00;152955.53;5094261;28;20186;-64
2022/08/01 06:01:21;;;;;;;2.70;2.03;;;;;;;27.74;100.00;153018.22;5093740;28;20653;-63
2022/08/01 06:03:48;;;;;;;4.50;2.22;;;;;;;27.83;100.00;153041.28;5093508;28;20190;-63
2022/08/01 06:06:15;;;;;;;2.50;1.98;;;;;;;28.03;100.00;153092.47;5093547;28;20188;-63
2022/08/01 06:08:42;;;;;;;4.90;2.20;;;;;;;28.08;100.00;153106.53;5093079;28;20180;-61
2022/08/01 06:11:08;;;;;;;3.53;2.50;;;;;;;28.25;100.00;153147.53;5093982;28;20532;-64
2022/08/01 06:13:35;;;;;;;1.90;1.80;;;;;;;28.47;100.00;153203.88;5093627;28;20243;-63
2022/08/01 06:16:04;;;;;;;9.30;1.92;;;;;;;28.67;99.58;153255.09;5093522;28;20562;-63
2022/08/01 06:18:31;;;;;;;2.42;2.03;;;;;;;29.11;97.41;153366.50;5093051;28;20243;-63
2022/08/01 06:20:58;;;;;;;8.48;2.10;;;;;;;29.40;94.04;153439.63;5093383;28;20676;-63
2022/08/01 06:23:25;;;;;;;2.22;1.73;;;;;;;29.26;91.48;153403.69;5093155;28;20358;-64
2022/08/01 06:25:54;;;;;;;2.53;1.60;;;;;;;29.19;89.94;153385.78;5092731;28;20184;-63
2022/08/01 06:28:20;;;;;;;1.10;1.10;;;;;;;29.08;85.81;153357.56;5092505;28;20639;-63
2022/08/01 06:30:47;;;;;;;1.38;1.27;;;;;;;29.60;83.51;153489.56;5093325;28;20188;-63
2022/08/01 06:33:16;;;;;;;1.52;0.95;;;;;;;29.87;80.32;153560.06;5093537;28;20287;-64
2022/08/01 06:35:43;;;;;;;1.23;1.20;;;;;;;29.96;79.82;153581.84;5093060;28;20188;-64
2022/08/01 06:38:10;;;;;;;1.83;1.20;;;;;;;30.21;79.72;153645.97;5093559;28;20212;-63
2022/08/01 06:40:38;;;;;;;5.63;1.52;;;;;;;30.53;75.67;153726.72;5093047;28;20263;-62
2022/08/01 06:43:05;;;;;;;5.50;1.35;;;;;;;30.43;77.10;153699.78;5092564;28;20203;-64
2022/08/01 06:45:36;;;;;;;3.05;1.80;;;;;;;30.29;77.23;153665.19;5092474;28;20180;-64
2022/08/01 06:48:03;;;;;;;3.47;1.45;;;;;;;29.96;78.33;153580.59;5092775;28;20603;-63
2022/08/01 06:50:32;;;;;;;1.77;1.15;;;;;;;29.98;77.61;153587.00;5092501;28;20274;-64
2022/08/01 06:52:59;;;;;;;1.83;1.30;;;;;;;29.82;78.38;153545.94;5092818;28;20192;-67
2022/08/01 06:55:26;;;;;;;1.83;1.10;;;;;;;29.92;76.78;153571.59;5092574;28;20183;-61
2022/08/01 06:57:54;;;;;;;1.50;1.40;;;;;;;30.07;77.45;153610.06;5092419;28;20219;-63
2022/08/01 07:00:23;;;;;;;1.55;1.45;;;;;;;30.37;74.85;153686.97;5092389;28;20192;-63
2022/08/01 07:02:50;;;;;;;1.27;1.27;;;;;;;30.56;72.80;153734.41;5092704;28;20611;-63
2022/08/01 07:05:17;;;;;;;1.30;1.20;;;;;;;30.65;72.34;153757.50;5092261;28;20191;-63
2022/08/01 07:07:45;;;;;;;2.63;1.20;;;;;;;30.42;71.59;153698.50;5092165;28;20176;-63
2022/08/01 07:10:13;;;;;;;1.80;1.70;;;;;;;30.26;77.92;153658.72;5092270;28;20185;-63
2022/08/01 07:12:40;;;;;;;2.65;1.30;;;;;;;29.95;75.47;153579.31;5092150;28;20318;-63
2022/08/01 07:15:10;;;;;;;2.03;1.50;;;;;;;29.65;79.30;153503.66;5092131;28;20284;-63
2022/08/01 07:17:38;;;;;;;1.23;1.23;;;;;;;29.82;75.67;153545.94;5092340;28;20665;-64
2022/08/01 07:20:07;;;;;;;1.75;1.65;;;;;;;29.77;81.66;153533.13;5092041;28;20180;-63
2022/08/01 07:22:34;;;;;;;1.13;1.13;;;;;;;29.98;77.79;153587.00;5091930;28;20199;-63
2022/08/01 07:25:03;;;;;;;2.53;0.93;;;;;;;29.89;75.49;153565.19;5092331;28;20703;-64
2022/08/01 07:27:30;;;;;;;4.85;1.17;;;;;;;30.08;77.52;153612.63;5092061;28;20378;-63
2022/08/01 07:29:57;;;;;;;1.50;1.40;;;;;;;30.04;73.44;153601.09;5092071;28;20214;-64
2022/08/01 07:32:24;;;;;;;5.28;1.20;;;;;;;30.20;75.76;153642.09;5092217;28;20550;-64
2022/08/01 07:34:51;;;;;;;1.00;0.90;;;;;;;30.23;71.45;153649.78;5091736;28;20279;-63
2022/08/01 07:37:18;;;;;;;1.40;0.90;;;;;;;30.37;70.09;153686.97;5092055;28;20208;-63
2022/08/01 07:39:45;;;;;;;3.65;1.23;;;;;;;30.52;70.65;153724.16;5092004;28;20669;-64
2022/08/01 07:42:13;;;;;;;1.63;1.00;;;;;;;30.56;67.57;153733.13;5092102;28;20531;-63
2022/08/01 07:44:41;;;;;;;1.63;0.93;;;;;;;30.63;71.65;153752.41;5092057;28;20196;-63
2022/08/01 07:47:07;;;;;;;0.85;0.85;;;;;;;30.79;70.08;153793.41;5089625;28;20498;-63
2022/08/01 07:49:35;;;;;;;1.58;0.95;;;;;;;30.74;66.07;153779.28;5074420;28;20258;-63
2022/08/01 07:52:02;;;;;;;2.92;0.98;;;;;;;30.85;66.71;153807.53;5087013;28;20214;-63
2022/08/01 07:54:28;;;;;;;1.35;0.80;;;;;;;30.86;66.49;153810.06;5091844;28;20214;-63
2022/08/01 07:56:55;;;;;;;2.28;1.00;;;;;;;31.17;67.55;153889.63;5091763;28;20191;-62
2022/08/01 07:59:24;;;;;;;1.02;0.90;;;;;;;31.16;66.13;153885.75;5091467;28;20194;-62
2022/08/01 08:01:51;;;;;;;0.80;0.80;;;;;;;31.52;64.64;153976.81;5091447;28;20194;-64
2022/08/01 08:04:18;;;;;;;1.88;0.70;;;;;;;31.65;61.46;154011.53;5091884;28;20264;-62
2022/08/01 08:06:47;;;;;;;5.28;1.13;;;;;;;31.42;62.56;153951.16;5091580;28;20184;-62
2022/08/01 08:09:16;;;;;;;3.22;1.23;;;;;;;31.53;62.82;153979.41;5092118;28;20619;-64
2022/08/01 08:11:44;;;;;;;3.33;1.17;;;;;;;31.71;60.16;154026.88;5092005;28;20184;-63
2022/08/01 08:14:11;;;;;;;1.00;0.90;;;;;;;31.85;62.73;154061.53;5089846;28;20305;-64
2022/08/01 08:16:40;;;;;;;1.10;0.75;;;;;;;32.22;58.14;154153.94;5089444;28;20223;-63
2022/08/01 08:19:06;;;;;;;1.08;0.70;;;;;;;32.45;57.20;154214.28;5091176;28;20228;-63
2022/08/01 08:21:33;;;;;;;1.40;0.90;;;;;;;32.52;56.82;154232.22;5091489;28;20187;-63
2022/08/01 08:26:44;;;;;;;5.70;1.30;;;;;;;32.52;57.51;154230.94;5091967;28;20599;-62
2022/08/01 08:29:11;;;;;;;2.70;0.90;;;;;;;32.38;54.35;154195.03;5091344;28;20769;-63
2022/08/01 08:31:40;;;;;;;1.10;1.00;;;;;;;32.26;54.82;154164.19;5091629;28;20188;-63
2022/08/01 08:34:07;;;;;;;6.80;0.93;;;;;;;32.24;59.03;154160.38;5092226;28;20196;-63
2022/08/01 08:36:34;;;;;;;2.15;0.90;;;;;;;32.11;58.16;154128.31;5091159;28;20198;-63
2022/08/01 08:39:01;;;;;;;1.17;1.08;;;;;;;31.95;59.29;154087.22;5091265;28;20240;-63
2022/08/01 08:41:30;;;;;;;1.33;0.70;;;;;;;32.15;57.94;154138.56;5091569;28;20674;-63
2022/08/01 08:43:58;;;;;;;0.75;0.75;;;;;;;32.22;59.72;154155.22;5073033;28;20218;-63
2022/08/01 08:46:27;;;;;;;1.95;0.73;;;;;;;32.22;59.10;154155.22;5090941;28;20634;-63
2022/08/01 08:48:56;;;;;;;2.03;1.08;;;;;;;32.11;57.30;154128.31;5091097;28;20631;-63
2022/08/01 08:51:26;;;;;;;1.27;0.93;;;;;;;32.17;57.56;154143.69;5094054;28;20631;-62
2022/08/01 08:53:55;;;;;;;1.38;0.82;;;;;;;32.20;60.36;154150.13;5081192;28;20211;-63
2022/08/01 08:56:25;;;;;;;3.55;1.33;;;;;;;32.23;59.85;154156.50;5075064;28;20188;-63
2022/08/01 08:58:53;;;;;;;3.03;1.30;;;;;;;32.53;59.06;154234.81;5074665;28;20208;-63
2022/08/01 09:01:20;;;;;;;3.83;0.90;;;;;;;32.37;56.44;154193.75;5075102;28;20184;-63
2022/08/01 09:03:46;;;;;;;0.88;0.68;;;;;;;32.26;56.99;154165.47;5074281;28;20185;-63
2022/08/01 09:06:15;;;;;;;0.70;0.70;;;;;;;32.54;56.15;154236.09;5074813;28;20647;-63
2022/08/01 09:08:42;;;;;;;1.17;0.65;;;;;;;32.93;53.11;154334.97;5074876;28;20193;-63
2022/08/01 09:11:09;;;;;;;0.77;0.77;;;;;;;33.50;53.22;154480.06;5074907;28;20682;-63
2022/08/01 09:13:36;;;;;;;0.77;0.75;;;;;;;34.21;52.23;154661.25;5074150;28;20675;-63
2022/08/01 09:16:06;;;;;;;0.60;0.60;;;;;;;33.93;50.70;154589.28;5074678;28;20708;-63
2022/08/01 09:18:35;;;;;;;0.80;0.70;;;;;;;34.24;48.13;154667.69;5073977;28;20215;-63
2022/08/01 09:21:14;;;;;;;1.65;0.70;;;;;;;33.89;48.50;154580.31;5074112;28;20242;-62
2022/08/01 09:23:45;;;;;;;1.80;0.80;;;;;;;33.89;47.54;154580.31;5074228;28;20185;-63
2022/08/01 09:26:13;;;;;;;0.82;0.82;;;;;;;33.76;48.89;154545.63;5074374;28;20196;-62
2022/08/01 09:28:40;;;;;;;1.20;0.80;;;;;;;33.82;49.83;154561.06;5074094;28;20187;-62
2022/08/01 09:31:09;;;;;;;1.58;0.55;;;;;;;33.98;50.88;154602.16;5073771;28;20195;-63
2022/08/01 09:33:52;;;;;;;1.27;0.75;;;;;;;33.64;51.04;154516.03;5090307;28;20729;-62
2022/08/01 09:39:44;;;;;;;1.80;0.90;;;;;;;33.51;50.03;154482.66;5093983;28;20208;-64
2022/08/01 09:42:26;;;;;;;0.95;0.95;;;;;;;33.47;53.13;154472.38;5094703;28;20245;-64
2022/08/01 09:44:58;;;;;;;0.75;0.75;;;;;;;33.65;53.43;154518.69;5094203;28;20196;-63
2022/08/01 09:50:44;;;;;;;0.70;0.70;;;;;;;34.01;49.05;154608.53;5088929;28;20195;-62
2022/08/01 09:53:22;;;;;;;0.70;0.70;;;;;;;33.84;48.67;154567.44;5093868;28;20191;-61
2022/08/01 09:55:54;;;;;;;2.08;0.90;;;;;;;34.07;47.13;154623.97;5093515;28;20365;-62
2022/08/01 09:58:23;;;;;;;1.83;0.90;;;;;;;34.18;47.26;154652.28;5093654;28;20294;-62
2022/08/01 10:01:00;;;;;;;1.13;0.52;;;;;;;34.68;45.79;154780.78;5093338;28;20184;-61
2022/08/01 10:03:29;;;;;;;1.65;0.60;;;;;;;34.72;44.50;154791.06;5092909;28;20184;-64
2022/08/01 10:05:56;;;;;;;1.30;0.60;;;;;;;34.68;45.24;154780.78;5093543;28;20229;-62
2022/08/01 10:08:25;;;;;;;0.93;0.65;;;;;;;34.52;45.98;154739.63;5092267;28;20650;-62
2022/08/01 10:11:10;;;;;;;0.60;0.60;;;;;;;34.54;43.97;154744.78;5093638;28;20192;-61
2022/08/01 10:13:37;;;;;;;0.50;0.50;;;;;;;34.29;43.88;154680.50;5093408;28;20232;-62
2022/08/01 10:16:06;;;;;;;0.55;0.55;;;;;;;34.04;47.17;154617.53;5093181;28;20192;-63
2022/08/01 10:18:34;;;;;;;0.70;0.70;;;;;;;34.05;44.12;154620.09;5093542;28;20200;-62
2022/08/01 10:21:03;;;;;;;1.52;0.60;;;;;;;34.20;46.55;154658.72;5091961;28;20191;-61
2022/08/01 10:23:38;;;;;;;0.50;0.50;;;;;;;34.49;46.46;154730.66;5093222;28;20188;-62
2022/08/01 10:26:07;;;;;;;1.50;0.80;;;;;;;34.58;48.59;154753.78;5093192;28;20275;-62
2022/08/01 10:28:37;;;;;;;0.50;0.50;;;;;;;34.45;44.92;154721.66;5092970;28;20186;-62
2022/08/01 10:31:04;;;;;;;1.65;0.70;;;;;;;34.07;44.55;154623.97;5093036;28;20192;-62
2022/08/01 10:33:31;;;;;;;0.80;0.70;;;;;;;33.77;49.29;154549.50;5092940;28;20200;-63
2022/08/01 10:35:59;;;;;;;1.15;1.05;;;;;;;33.95;46.86;154595.69;5093056;28;20214;-62
2022/08/01 10:38:28;;;;;;;2.50;1.10;;;;;;;34.16;47.75;154648.41;5092959;28;20698;-62
2022/08/01 10:40:58;;;;;;;3.25;1.02;;;;;;;34.28;48.22;154677.97;5093171;28;20184;-63
2022/08/01 10:43:24;;;;;;;1.13;1.00;;;;;;;34.52;48.63;154739.63;5092538;28;20196;-61
2022/08/01 10:45:53;;;;;;;0.65;0.65;;;;;;;34.66;46.25;154775.66;5092681;28;20184;-62
2022/08/01 10:48:25;;;;;;;1.23;0.90;;;;;;;34.54;47.16;154743.50;5093011;28;20271;-62
2022/08/01 10:50:56;;;;;;;1.05;1.05;;;;;;;34.18;45.37;154652.28;5092452;28;20180;-63
2022/08/01 10:53:25;;;;;;;2.70;0.77;;;;;;;33.88;46.90;154577.72;5093113;28;20192;-63
2022/08/01 10:55:59;;;;;;;0.73;0.73;;;;;;;33.26;47.31;154418.47;5092452;28;20188;-62
2022/08/01 10:58:28;;;;;;;0.80;0.80;;;;;;;33.40;49.14;154454.38;5092529;28;20512;-63
2022/08/01 11:01:23;;;;;;;2.00;0.82;;;;;;;33.35;48.95;154442.88;5092585;28;20605;-62
2022/08/01 11:04:08;;;;;;;1.30;0.90;;;;;;;33.00;50.07;154354.22;5091312;28;20195;-63
2022/08/01 11:06:48;;;;;;;0.80;0.80;;;;;;;32.55;49.66;154239.91;5092620;28;20184;-67
2022/08/01 11:09:25;;;;;;;1.00;0.90;;;;;;;32.87;52.26;154319.56;5092332;28;20270;-62
2022/08/01 11:12:00;;;;;;;0.85;0.75;;;;;;;32.59;50.59;154248.94;5092857;28;20283;-63
2022/08/01 11:14:27;;;;;;;3.03;1.00;;;;;;;32.82;54.94;154308.00;5092277;28;20234;-62
2022/08/01 11:16:56;;;;;;;0.90;0.90;;;;;;;32.82;51.08;154308.00;5090978;28;20200;-62
2022/08/01 11:19:23;;;;;;;2.78;1.48;;;;;;;32.28;49.08;154170.66;5092471;28;20261;-63
2022/08/01 11:22:05;;;;;;;3.78;3.42;;;;;;;32.70;52.97;154277.19;5092392;28;20530;-64
2022/08/01 11:24:57;;;;;;;28.00;16.85;;;;;;;32.54;49.57;154236.09;5090026;28;20282;-64
2022/08/01 11:27:27;;;;;;;1.85;0.90;;;;;;;32.33;50.02;154182.19;5091769;28;20184;-62
2022/08/01 11:30:29;;;;;;;5.80;0.90;;;;;;;32.33;51.30;154183.47;5092675;28;20618;-63
2022/08/01 11:32:58;;;;;;;2.80;1.73;;;;;;;32.29;53.83;154171.94;5092033;28;20196;-62
2022/08/01 11:35:26;;;;;;;2.15;1.00;;;;;;;32.48;53.52;154221.97;5091796;28;20191;-62
2022/08/01 11:37:55;;;;;;;1.33;0.82;;;;;;;32.61;52.12;154255.38;5092327;28;20200;-62
2022/08/01 11:40:24;;;;;;;2.08;1.00;;;;;;;32.71;51.84;154279.78;5092216;28;20208;-63